sensor_id;sensor_type;location;lat;lon;timestamp;P1;durP1;ratioP1;P2;durP2;ratioP2
40367;SDS011;26075;43.320;21.920;2024-01-15T00:03:55;433.42;;;278.52;;
40367;SDS011;26075;43.320;21.920;2024-01-15T00:08:58;453.88;;;287.63;;
40367;SDS011;26075;43.320;21.920;2024-01-15T00:14:00;457.38;;;285.30;;
40367;SDS011;26075;43.320;21.920;2024-01-15T00:19:01;425.27;;;263.95;;
40367;SDS011;26075;43.320;21.920;2024-01-15T00:24:02;428.92;;;266.27;;
40367;SDS011;26075;43.320;21.920;2024-01-15T00:29:03;460.60;;;290.02;;
40367;SDS011;26075;43.320;21.920;2024-01-15T00:34:05;467.42;;;287.38;;
40367;SDS011;26075;43.320;21.920;2024-01-15T00:39:06;435.52;;;272.73;;
40367;SDS011;26075;43.320;21.920;2024-01-15T00:44:07;415.80;;;256.10;;
40367;SDS011;26075;43.320;21.920;2024-01-15T00:49:08;423.65;;;257.65;;
40367;SDS011;26075;43.320;21.920;2024-01-15T00:54:09;422.58;;;261.40;;
40367;SDS011;26075;43.320;21.920;2024-01-15T00:59:10;367.13;;;218.30;;
40367;SDS011;26075;43.320;21.920;2024-01-15T01:04:14;341.08;;;199.60;;
40367;SDS011;26075;43.320;21.920;2024-01-15T01:09:15;320.77;;;188.38;;
40367;SDS011;26075;43.320;21.920;2024-01-15T01:14:16;346.33;;;207.55;;
40367;SDS011;26075;43.320;21.920;2024-01-15T01:19:17;335.98;;;199.35;;
40367;SDS011;26075;43.320;21.920;2024-01-15T01:24:19;312.45;;;184.40;;
40367;SDS011;26075;43.320;21.920;2024-01-15T01:29:20;294.88;;;176.82;;
40367;SDS011;26075;43.320;21.920;2024-01-15T01:34:21;279.52;;;161.32;;
40367;SDS011;26075;43.320;21.920;2024-01-15T01:39:22;277.08;;;161.50;;
40367;SDS011;26075;43.320;21.920;2024-01-15T01:44:23;238.98;;;141.77;;
40367;SDS011;26075;43.320;21.920;2024-01-15T01:49:24;185.02;;;112.32;;
40367;SDS011;26075;43.320;21.920;2024-01-15T01:54:26;140.02;;;87.55;;
40367;SDS011;26075;43.320;21.920;2024-01-15T01:59:28;149.65;;;88.22;;
40367;SDS011;26075;43.320;21.920;2024-01-15T02:04:29;134.02;;;78.60;;
40367;SDS011;26075;43.320;21.920;2024-01-15T02:09:31;123.00;;;73.75;;
40367;SDS011;26075;43.320;21.920;2024-01-15T02:14:40;95.60;;;56.65;;
40367;SDS011;26075;43.320;21.920;2024-01-15T02:19:41;98.80;;;60.03;;
40367;SDS011;26075;43.320;21.920;2024-01-15T02:24:42;83.93;;;50.38;;
40367;SDS011;26075;43.320;21.920;2024-01-15T02:29:43;73.82;;;47.20;;
40367;SDS011;26075;43.320;21.920;2024-01-15T02:34:44;73.55;;;44.28;;
40367;SDS011;26075;43.320;21.920;2024-01-15T02:39:45;68.88;;;44.03;;
40367;SDS011;26075;43.320;21.920;2024-01-15T02:44:47;64.55;;;40.55;;
40367;SDS011;26075;43.320;21.920;2024-01-15T02:49:48;62.40;;;38.75;;
40367;SDS011;26075;43.320;21.920;2024-01-15T02:54:49;58.90;;;35.58;;
40367;SDS011;26075;43.320;21.920;2024-01-15T02:59:50;50.70;;;31.90;;
40367;SDS011;26075;43.320;21.920;2024-01-15T03:04:51;55.45;;;33.05;;
40367;SDS011;26075;43.320;21.920;2024-01-15T03:09:52;54.53;;;33.35;;
40367;SDS011;26075;43.320;21.920;2024-01-15T03:14:57;53.03;;;31.92;;
40367;SDS011;26075;43.320;21.920;2024-01-15T03:19:58;53.40;;;30.43;;
40367;SDS011;26075;43.320;21.920;2024-01-15T03:25:00;47.42;;;29.63;;
40367;SDS011;26075;43.320;21.920;2024-01-15T03:30:01;44.75;;;27.23;;
40367;SDS011;26075;43.320;21.920;2024-01-15T03:35:02;42.67;;;28.55;;
40367;SDS011;26075;43.320;21.920;2024-01-15T03:40:03;48.25;;;28.23;;
40367;SDS011;26075;43.320;21.920;2024-01-15T03:45:05;44.97;;;25.33;;
40367;SDS011;26075;43.320;21.920;2024-01-15T03:50:06;41.20;;;25.25;;
40367;SDS011;26075;43.320;21.920;2024-01-15T03:55:07;39.72;;;25.80;;
40367;SDS011;26075;43.320;21.920;2024-01-15T04:00:08;42.95;;;25.48;;
40367;SDS011;26075;43.320;21.920;2024-01-15T04:05:10;44.72;;;27.23;;
40367;SDS011;26075;43.320;21.920;2024-01-15T04:10:11;41.58;;;27.63;;
40367;SDS011;26075;43.320;21.920;2024-01-15T04:15:14;40.72;;;26.83;;
40367;SDS011;26075;43.320;21.920;2024-01-15T04:20:15;39.10;;;25.05;;
40367;SDS011;26075;43.320;21.920;2024-01-15T04:25:16;42.75;;;25.55;;
40367;SDS011;26075;43.320;21.920;2024-01-15T04:30:17;40.03;;;24.80;;
40367;SDS011;26075;43.320;21.920;2024-01-15T04:35:18;39.35;;;24.95;;
40367;SDS011;26075;43.320;21.920;2024-01-15T04:40:28;41.45;;;25.08;;
40367;SDS011;26075;43.320;21.920;2024-01-15T04:45:29;41.88;;;26.23;;
40367;SDS011;26075;43.320;21.920;2024-01-15T04:50:30;41.38;;;23.48;;
40367;SDS011;26075;43.320;21.920;2024-01-15T04:55:32;42.35;;;24.77;;
40367;SDS011;26075;43.320;21.920;2024-01-15T05:00:34;39.30;;;22.77;;
40367;SDS011;26075;43.320;21.920;2024-01-15T05:05:35;35.53;;;22.27;;
40367;SDS011;26075;43.320;21.920;2024-01-15T05:10:36;44.13;;;26.77;;
40367;SDS011;26075;43.320;21.920;2024-01-15T05:15:37;53.15;;;32.53;;
40367;SDS011;26075;43.320;21.920;2024-01-15T05:20:39;57.15;;;33.78;;
40367;SDS011;26075;43.320;21.920;2024-01-15T05:25:48;51.50;;;32.50;;
40367;SDS011;26075;43.320;21.920;2024-01-15T05:30:50;48.67;;;29.88;;
40367;SDS011;26075;43.320;21.920;2024-01-15T05:35:52;44.15;;;26.90;;
40367;SDS011;26075;43.320;21.920;2024-01-15T05:40:53;50.08;;;31.05;;
40367;SDS011;26075;43.320;21.920;2024-01-15T05:45:55;65.32;;;38.85;;
40367;SDS011;26075;43.320;21.920;2024-01-15T05:51:02;69.47;;;40.10;;
40367;SDS011;26075;43.320;21.920;2024-01-15T05:56:04;69.40;;;41.80;;
40367;SDS011;26075;43.320;21.920;2024-01-15T06:01:06;64.88;;;37.78;;
40367;SDS011;26075;43.320;21.920;2024-01-15T06:06:08;72.07;;;43.40;;
40367;SDS011;26075;43.320;21.920;2024-01-15T06:11:09;69.00;;;42.08;;
40367;SDS011;26075;43.320;21.920;2024-01-15T06:16:13;72.03;;;42.38;;
40367;SDS011;26075;43.320;21.920;2024-01-15T06:21:15;75.40;;;44.88;;
40367;SDS011;26075;43.320;21.920;2024-01-15T06:26:17;84.57;;;48.33;;
40367;SDS011;26075;43.320;21.920;2024-01-15T06:31:18;89.82;;;51.80;;
40367;SDS011;26075;43.320;21.920;2024-01-15T06:36:19;71.53;;;44.42;;
40367;SDS011;26075;43.320;21.920;2024-01-15T06:41:20;78.50;;;46.22;;
40367;SDS011;26075;43.320;21.920;2024-01-15T06:46:23;77.72;;;44.08;;
40367;SDS011;26075;43.320;21.920;2024-01-15T06:51:24;78.40;;;42.95;;
40367;SDS011;26075;43.320;21.920;2024-01-15T06:56:25;76.30;;;47.15;;
40367;SDS011;26075;43.320;21.920;2024-01-15T07:01:26;72.13;;;44.45;;
40367;SDS011;26075;43.320;21.920;2024-01-15T07:06:27;78.10;;;48.33;;
40367;SDS011;26075;43.320;21.920;2024-01-15T07:11:28;74.00;;;44.90;;
40367;SDS011;26075;43.320;21.920;2024-01-15T07:16:33;67.50;;;41.75;;
40367;SDS011;26075;43.320;21.920;2024-01-15T07:21:35;80.28;;;47.88;;
40367;SDS011;26075;43.320;21.920;2024-01-15T07:26:36;78.07;;;46.03;;
40367;SDS011;26075;43.320;21.920;2024-01-15T07:31:37;82.70;;;49.05;;
40367;SDS011;26075;43.320;21.920;2024-01-15T07:36:38;77.78;;;49.35;;
40367;SDS011;26075;43.320;21.920;2024-01-15T07:41:48;75.22;;;46.35;;
40367;SDS011;26075;43.320;21.920;2024-01-15T07:46:49;61.67;;;37.13;;
40367;SDS011;26075;43.320;21.920;2024-01-15T07:51:50;44.40;;;28.42;;
40367;SDS011;26075;43.320;21.920;2024-01-15T07:56:59;62.53;;;37.53;;
40367;SDS011;26075;43.320;21.920;2024-01-15T08:02:09;56.40;;;35.75;;
40367;SDS011;26075;43.320;21.920;2024-01-15T08:07:10;74.05;;;47.28;;
40367;SDS011;26075;43.320;21.920;2024-01-15T08:12:11;125.72;;;73.05;;
40367;SDS011;26075;43.320;21.920;2024-01-15T08:17:12;106.47;;;62.28;;
40367;SDS011;26075;43.320;21.920;2024-01-15T08:22:13;101.70;;;60.78;;
40367;SDS011;26075;43.320;21.920;2024-01-15T08:27:17;98.38;;;55.15;;
40367;SDS011;26075;43.320;21.920;2024-01-15T08:32:18;82.70;;;49.78;;
40367;SDS011;26075;43.320;21.920;2024-01-15T08:37:19;84.82;;;50.22;;
40367;SDS011;26075;43.320;21.920;2024-01-15T08:42:20;102.43;;;62.25;;
40367;SDS011;26075;43.320;21.920;2024-01-15T08:47:22;114.68;;;71.28;;
40367;SDS011;26075;43.320;21.920;2024-01-15T08:52:24;118.25;;;74.80;;
40367;SDS011;26075;43.320;21.920;2024-01-15T08:57:25;125.97;;;79.38;;
40367;SDS011;26075;43.320;21.920;2024-01-15T09:02:27;82.70;;;52.88;;
40367;SDS011;26075;43.320;21.920;2024-01-15T09:07:28;59.28;;;38.10;;
40367;SDS011;26075;43.320;21.920;2024-01-15T09:12:29;49.25;;;33.72;;
40367;SDS011;26075;43.320;21.920;2024-01-15T09:17:31;53.75;;;32.25;;
40367;SDS011;26075;43.320;21.920;2024-01-15T09:22:37;65.20;;;39.85;;
40367;SDS011;26075;43.320;21.920;2024-01-15T09:27:42;59.95;;;40.13;;
40367;SDS011;26075;43.320;21.920;2024-01-15T09:32:51;74.18;;;45.75;;
40367;SDS011;26075;43.320;21.920;2024-01-15T09:37:52;64.35;;;39.03;;
40367;SDS011;26075;43.320;21.920;2024-01-15T09:42:53;58.33;;;38.78;;
40367;SDS011;26075;43.320;21.920;2024-01-15T09:47:54;52.00;;;33.92;;
40367;SDS011;26075;43.320;21.920;2024-01-15T09:52:55;59.58;;;36.00;;
40367;SDS011;26075;43.320;21.920;2024-01-15T09:57:57;55.85;;;34.53;;
40367;SDS011;26075;43.320;21.920;2024-01-15T10:02:59;52.85;;;31.83;;
40367;SDS011;26075;43.320;21.920;2024-01-15T10:08:03;62.42;;;35.28;;
40367;SDS011;26075;43.320;21.920;2024-01-15T10:13:05;58.50;;;36.85;;
40367;SDS011;26075;43.320;21.920;2024-01-15T10:18:07;58.97;;;37.60;;
40367;SDS011;26075;43.320;21.920;2024-01-15T10:23:08;53.55;;;33.20;;
40367;SDS011;26075;43.320;21.920;2024-01-15T10:28:09;51.17;;;33.35;;
40367;SDS011;26075;43.320;21.920;2024-01-15T10:33:10;60.30;;;39.13;;
40367;SDS011;26075;43.320;21.920;2024-01-15T10:38:12;66.07;;;42.42;;
40367;SDS011;26075;43.320;21.920;2024-01-15T10:43:13;78.35;;;47.65;;
40367;SDS011;26075;43.320;21.920;2024-01-15T10:48:15;71.03;;;45.05;;
40367;SDS011;26075;43.320;21.920;2024-01-15T10:53:17;75.80;;;47.28;;
40367;SDS011;26075;43.320;21.920;2024-01-15T10:58:18;76.07;;;45.40;;
40367;SDS011;26075;43.320;21.920;2024-01-15T11:03:21;71.15;;;45.13;;
40367;SDS011;26075;43.320;21.920;2024-01-15T11:08:22;74.20;;;46.90;;
40367;SDS011;26075;43.320;21.920;2024-01-15T11:18:36;64.00;;;40.83;;
40367;SDS011;26075;43.320;21.920;2024-01-15T11:39:49;77.53;;;48.13;;
40367;SDS011;26075;43.320;21.920;2024-01-15T11:44:51;95.97;;;57.88;;
40367;SDS011;26075;43.320;21.920;2024-01-15T11:50:02;119.47;;;77.68;;
40367;SDS011;26075;43.320;21.920;2024-01-15T12:00:24;129.73;;;79.28;;
40367;SDS011;26075;43.320;21.920;2024-01-15T12:05:25;187.73;;;118.72;;
40367;SDS011;26075;43.320;21.920;2024-01-15T12:10:26;253.55;;;159.68;;
40367;SDS011;26075;43.320;21.920;2024-01-15T12:15:28;202.02;;;126.68;;
40367;SDS011;26075;43.320;21.920;2024-01-15T12:20:30;170.88;;;108.43;;
40367;SDS011;26075;43.320;21.920;2024-01-15T12:25:31;199.75;;;130.70;;
40367;SDS011;26075;43.320;21.920;2024-01-15T12:30:33;222.70;;;142.23;;
40367;SDS011;26075;43.320;21.920;2024-01-15T12:35:34;202.18;;;134.57;;
40367;SDS011;26075;43.320;21.920;2024-01-15T12:40:35;197.13;;;130.55;;
40367;SDS011;26075;43.320;21.920;2024-01-15T12:45:40;185.88;;;121.93;;
40367;SDS011;26075;43.320;21.920;2024-01-15T12:50:43;177.98;;;114.47;;
40367;SDS011;26075;43.320;21.920;2024-01-15T12:55:45;167.68;;;107.10;;
40367;SDS011;26075;43.320;21.920;2024-01-15T13:00:46;185.07;;;118.20;;
40367;SDS011;26075;43.320;21.920;2024-01-15T13:05:48;185.20;;;119.93;;
40367;SDS011;26075;43.320;21.920;2024-01-15T13:10:49;158.32;;;99.25;;
40367;SDS011;26075;43.320;21.920;2024-01-15T13:15:52;114.70;;;72.20;;
40367;SDS011;26075;43.320;21.920;2024-01-15T13:20:53;115.35;;;76.25;;
40367;SDS011;26075;43.320;21.920;2024-01-15T13:25:54;112.95;;;77.40;;
40367;SDS011;26075;43.320;21.920;2024-01-15T13:30:55;107.47;;;71.88;;
40367;SDS011;26075;43.320;21.920;2024-01-15T13:35:56;116.68;;;80.65;;
40367;SDS011;26075;43.320;21.920;2024-01-15T13:40:57;156.32;;;98.32;;
40367;SDS011;26075;43.320;21.920;2024-01-15T13:45:59;118.18;;;79.35;;
40367;SDS011;26075;43.320;21.920;2024-01-15T13:51:00;65.82;;;42.95;;
40367;SDS011;26075;43.320;21.920;2024-01-15T13:56:01;90.00;;;60.83;;
40367;SDS011;26075;43.320;21.920;2024-01-15T14:01:05;144.68;;;100.43;;
40367;SDS011;26075;43.320;21.920;2024-01-15T14:06:06;151.73;;;99.93;;
40367;SDS011;26075;43.320;21.920;2024-01-15T14:11:08;152.55;;;104.43;;
40367;SDS011;26075;43.320;21.920;2024-01-15T14:16:10;172.25;;;114.43;;
40367;SDS011;26075;43.320;21.920;2024-01-15T14:21:11;159.40;;;104.93;;
40367;SDS011;26075;43.320;21.920;2024-01-15T14:26:12;133.75;;;85.22;;
40367;SDS011;26075;43.320;21.920;2024-01-15T14:31:14;150.68;;;98.53;;
40367;SDS011;26075;43.320;21.920;2024-01-15T14:36:15;146.43;;;97.75;;
40367;SDS011;26075;43.320;21.920;2024-01-15T14:41:16;178.57;;;114.95;;
40367;SDS011;26075;43.320;21.920;2024-01-15T14:46:17;195.82;;;127.00;;
40367;SDS011;26075;43.320;21.920;2024-01-15T14:51:18;153.77;;;103.30;;
40367;SDS011;26075;43.320;21.920;2024-01-15T14:56:19;112.90;;;72.78;;
40367;SDS011;26075;43.320;21.920;2024-01-15T15:01:23;114.88;;;70.80;;
40367;SDS011;26075;43.320;21.920;2024-01-15T15:06:25;106.15;;;67.53;;
40367;SDS011;26075;43.320;21.920;2024-01-15T15:11:27;88.45;;;60.03;;
40367;SDS011;26075;43.320;21.920;2024-01-15T15:16:28;93.13;;;63.42;;
40367;SDS011;26075;43.320;21.920;2024-01-15T15:21:29;96.25;;;65.05;;
40367;SDS011;26075;43.320;21.920;2024-01-15T15:26:31;103.38;;;65.60;;
40367;SDS011;26075;43.320;21.920;2024-01-15T15:31:32;95.45;;;64.45;;
40367;SDS011;26075;43.320;21.920;2024-01-15T15:36:38;99.40;;;64.60;;
40367;SDS011;26075;43.320;21.920;2024-01-15T15:41:40;91.20;;;59.28;;
40367;SDS011;26075;43.320;21.920;2024-01-15T15:46:43;64.03;;;44.63;;
40367;SDS011;26075;43.320;21.920;2024-01-15T15:51:44;68.72;;;45.92;;
40367;SDS011;26075;43.320;21.920;2024-01-15T15:56:46;80.13;;;52.92;;
40367;SDS011;26075;43.320;21.920;2024-01-15T16:01:49;96.07;;;62.65;;
40367;SDS011;26075;43.320;21.920;2024-01-15T16:06:51;120.65;;;79.13;;
40367;SDS011;26075;43.320;21.920;2024-01-15T16:11:52;122.82;;;78.95;;
40367;SDS011;26075;43.320;21.920;2024-01-15T16:16:54;123.15;;;80.95;;
40367;SDS011;26075;43.320;21.920;2024-01-15T16:21:57;115.30;;;76.63;;
40367;SDS011;26075;43.320;21.920;2024-01-15T16:26:58;110.60;;;75.40;;
40367;SDS011;26075;43.320;21.920;2024-01-15T16:31:59;111.60;;;73.13;;
40367;SDS011;26075;43.320;21.920;2024-01-15T16:37:01;103.50;;;66.15;;
40367;SDS011;26075;43.320;21.920;2024-01-15T16:42:02;95.53;;;63.63;;
40367;SDS011;26075;43.320;21.920;2024-01-15T16:47:04;88.28;;;59.65;;
40367;SDS011;26075;43.320;21.920;2024-01-15T16:52:05;83.55;;;59.28;;
40367;SDS011;26075;43.320;21.920;2024-01-15T16:57:13;90.80;;;59.15;;
40367;SDS011;26075;43.320;21.920;2024-01-15T17:02:15;90.75;;;61.53;;
40367;SDS011;26075;43.320;21.920;2024-01-15T17:07:16;96.55;;;64.80;;
40367;SDS011;26075;43.320;21.920;2024-01-15T17:12:17;95.30;;;62.50;;
40367;SDS011;26075;43.320;21.920;2024-01-15T17:17:18;142.38;;;89.95;;
40367;SDS011;26075;43.320;21.920;2024-01-15T17:22:21;148.80;;;96.15;;
40367;SDS011;26075;43.320;21.920;2024-01-15T17:27:22;145.50;;;97.90;;
40367;SDS011;26075;43.320;21.920;2024-01-15T17:32:23;256.52;;;166.10;;
40367;SDS011;26075;43.320;21.920;2024-01-15T17:37:24;294.33;;;195.82;;
40367;SDS011;26075;43.320;21.920;2024-01-15T17:42:25;279.90;;;186.27;;
40367;SDS011;26075;43.320;21.920;2024-01-15T17:52:56;198.40;;;134.13;;
40367;SDS011;26075;43.320;21.920;2024-01-15T17:57:57;247.13;;;154.48;;
40367;SDS011;26075;43.320;21.920;2024-01-15T18:02:59;250.38;;;161.45;;
40367;SDS011;26075;43.320;21.920;2024-01-15T18:08:01;260.63;;;175.40;;
40367;SDS011;26075;43.320;21.920;2024-01-15T18:13:02;259.85;;;172.80;;
40367;SDS011;26075;43.320;21.920;2024-01-15T18:18:03;274.83;;;184.68;;
40367;SDS011;26075;43.320;21.920;2024-01-15T18:23:04;256.15;;;174.93;;
40367;SDS011;26075;43.320;21.920;2024-01-15T18:28:08;224.55;;;150.43;;
40367;SDS011;26075;43.320;21.920;2024-01-15T18:33:10;234.25;;;159.05;;
40367;SDS011;26075;43.320;21.920;2024-01-15T18:38:12;264.60;;;168.60;;
40367;SDS011;26075;43.320;21.920;2024-01-15T18:43:13;180.20;;;119.63;;
40367;SDS011;26075;43.320;21.920;2024-01-15T18:48:16;159.38;;;103.50;;
40367;SDS011;26075;43.320;21.920;2024-01-15T18:53:17;178.93;;;115.88;;
40367;SDS011;26075;43.320;21.920;2024-01-15T18:58:18;177.98;;;117.25;;
40367;SDS011;26075;43.320;21.920;2024-01-15T19:03:19;150.35;;;96.28;;
40367;SDS011;26075;43.320;21.920;2024-01-15T19:08:20;198.10;;;130.02;;
40367;SDS011;26075;43.320;21.920;2024-01-15T19:13:21;168.57;;;110.35;;
40367;SDS011;26075;43.320;21.920;2024-01-15T19:18:31;151.88;;;102.65;;
40367;SDS011;26075;43.320;21.920;2024-01-15T19:23:32;155.15;;;106.22;;
40367;SDS011;26075;43.320;21.920;2024-01-15T19:28:40;156.55;;;106.30;;
40367;SDS011;26075;43.320;21.920;2024-01-15T19:33:41;176.85;;;120.97;;
40367;SDS011;26075;43.320;21.920;2024-01-15T19:38:44;277.17;;;187.23;;
40367;SDS011;26075;43.320;21.920;2024-01-15T19:43:46;311.23;;;219.55;;
40367;SDS011;26075;43.320;21.920;2024-01-15T19:48:49;298.75;;;204.82;;
40367;SDS011;26075;43.320;21.920;2024-01-15T19:53:51;246.45;;;165.15;;
40367;SDS011;26075;43.320;21.920;2024-01-15T19:59:05;200.23;;;135.23;;
40367;SDS011;26075;43.320;21.920;2024-01-15T20:04:08;199.30;;;133.80;;
40367;SDS011;26075;43.320;21.920;2024-01-15T20:09:09;205.30;;;137.80;;
40367;SDS011;26075;43.320;21.920;2024-01-15T20:14:10;238.30;;;158.18;;
40367;SDS011;26075;43.320;21.920;2024-01-15T20:19:11;258.20;;;172.98;;
40367;SDS011;26075;43.320;21.920;2024-01-15T20:24:13;258.65;;;175.35;;
40367;SDS011;26075;43.320;21.920;2024-01-15T20:29:22;279.67;;;193.00;;
40367;SDS011;26075;43.320;21.920;2024-01-15T20:34:23;279.75;;;188.45;;
40367;SDS011;26075;43.320;21.920;2024-01-15T20:39:25;265.55;;;181.38;;
40367;SDS011;26075;43.320;21.920;2024-01-15T20:44:26;248.98;;;170.38;;
40367;SDS011;26075;43.320;21.920;2024-01-15T20:49:27;211.75;;;143.80;;
40367;SDS011;26075;43.320;21.920;2024-01-15T21:00:06;286.92;;;196.02;;
40367;SDS011;26075;43.320;21.920;2024-01-15T21:05:08;267.05;;;178.65;;
40367;SDS011;26075;43.320;21.920;2024-01-15T21:10:09;244.30;;;156.05;;
40367;SDS011;26075;43.320;21.920;2024-01-15T21:15:10;219.02;;;143.45;;
40367;SDS011;26075;43.320;21.920;2024-01-15T21:20:11;210.93;;;139.13;;
40367;SDS011;26075;43.320;21.920;2024-01-15T21:25:14;233.68;;;160.73;;
40367;SDS011;26075;43.320;21.920;2024-01-15T21:30:15;169.95;;;117.10;;
40367;SDS011;26075;43.320;21.920;2024-01-15T21:35:16;139.88;;;95.47;;
40367;SDS011;26075;43.320;21.920;2024-01-15T21:40:23;177.55;;;118.50;;
40367;SDS011;26075;43.320;21.920;2024-01-15T21:45:24;140.05;;;91.65;;
40367;SDS011;26075;43.320;21.920;2024-01-15T21:50:25;93.90;;;59.88;;
40367;SDS011;26075;43.320;21.920;2024-01-15T21:55:26;82.78;;;52.03;;
40367;SDS011;26075;43.320;21.920;2024-01-15T22:00:27;107.38;;;68.68;;
40367;SDS011;26075;43.320;21.920;2024-01-15T22:05:28;115.95;;;72.10;;
40367;SDS011;26075;43.320;21.920;2024-01-15T22:16:04;73.82;;;47.10;;
40367;SDS011;26075;43.320;21.920;2024-01-15T22:21:16;42.50;;;30.88;;
40367;SDS011;26075;43.320;21.920;2024-01-15T22:26:17;46.50;;;30.55;;
40367;SDS011;26075;43.320;21.920;2024-01-15T22:31:20;83.90;;;54.75;;
40367;SDS011;26075;43.320;21.920;2024-01-15T22:36:24;108.28;;;73.82;;
40367;SDS011;26075;43.320;21.920;2024-01-15T22:41:25;211.98;;;135.57;;
40367;SDS011;26075;43.320;21.920;2024-01-15T22:46:34;265.75;;;175.10;;
40367;SDS011;26075;43.320;21.920;2024-01-15T22:51:35;292.20;;;193.40;;
40367;SDS011;26075;43.320;21.920;2024-01-15T22:56:39;306.77;;;207.63;;
40367;SDS011;26075;43.320;21.920;2024-01-15T23:01:40;272.10;;;185.00;;
40367;SDS011;26075;43.320;21.920;2024-01-15T23:06:41;247.75;;;161.77;;
40367;SDS011;26075;43.320;21.920;2024-01-15T23:11:46;253.23;;;161.00;;
40367;SDS011;26075;43.320;21.920;2024-01-15T23:16:49;236.45;;;151.68;;
40367;SDS011;26075;43.320;21.920;2024-01-15T23:21:50;216.63;;;137.75;;
40367;SDS011;26075;43.320;21.920;2024-01-15T23:26:52;189.35;;;121.13;;
40367;SDS011;26075;43.320;21.920;2024-01-15T23:31:53;122.88;;;83.25;;
40367;SDS011;26075;43.320;21.920;2024-01-15T23:36:55;145.90;;;94.25;;
40367;SDS011;26075;43.320;21.920;2024-01-15T23:41:56;79.88;;;51.92;;
40367;SDS011;26075;43.320;21.920;2024-01-15T23:47:03;30.85;;;20.77;;
40367;SDS011;26075;43.320;21.920;2024-01-15T23:52:05;27.35;;;15.45;;
40367;SDS011;26075;43.320;21.920;2024-01-15T23:57:08;23.77;;;14.15;;
